Home > Products > Valid Products > TAF

000
FTUS41 KILN 231700
TAFILN
TAF
KILN 231730Z 2318/2418 06005KT P6SM VCSH BKN050
     FM232100 05005KT P6SM BKN040
     FM240200 05004KT P6SM BKN080
     FM240600 05004KT 2SM BR BKN200
      TEMPO 2408/2412 1SM BR
     FM241400 05005KT P6SM SCT040=



000
FTUS41 KILN 231700
TAFLUK
TAF
KLUK 231730Z 2318/2418 05004KT P6SM BKN060
     FM232100 04004KT P6SM VCTS BKN040CB
     FM240200 00000KT P6SM BKN080
     FM240600 00000KT 2SM BR BKN200
     FM240800 00000KT 1/4SM FG VV002
     FM241300 04003KT P6SM SCT040=



000
FTUS41 KILN 231700
TAFLCK
TAF
KLCK 231730Z 2318/2418 07005KT P6SM BKN060
     FM240100 VRB03KT P6SM BKN080
     FM240800 00000KT 2SM BR BKN200
     FM241400 08005KT P6SM SCT040=



000
FTUS41 KILN 231700
TAFDAY
TAF
KDAY 231730Z 2318/2418 08005KT P6SM BKN060
      TEMPO 2318/2320 -SHRA OVC035
     FM232000 05005KT P6SM BKN040
     FM240200 05004KT P6SM BKN080
     FM240600 05004KT 2SM BR BKN200
     FM241400 04006KT P6SM SCT040=



000
FTUS41 KILN 231700
TAFCVG
TAF
KCVG 231730Z 2318/2424 05005KT P6SM BKN060
     FM232100 04005KT P6SM VCTS BKN040CB
     FM240200 05004KT P6SM BKN080
     FM240600 05003KT 2SM BR BKN200
     FM241400 04006KT P6SM SCT040=



000
FTUS41 KILN 231700
TAFCMH
TAF
KCMH 231730Z 2318/2418 07005KT P6SM BKN060
     FM240100 05004KT P6SM BKN080
     FM240800 VRB03KT 4SM BR BKN200
     FM241400 08005KT P6SM SCT040=



000
FTUS41 KILN 231600 AAC
TAFDAY
TAF AMD
KDAY 231642Z 2317/2412 08005KT P6SM BKN050
      TEMPO 2317/2319 -SHRA OVC035
     FM231900 09007KT P6SM BKN035
     FM240100 04005KT P6SM VCSH BKN040
     FM240600 00000KT 3SM BR SCT040=



000
FTUS41 KILN 231600 AAC
TAFLCK
TAF AMD
KLCK 231632Z 2317/2412 05005KT P6SM BKN040
     FM240100 06003KT P6SM BKN040
     FM240400 00000KT 2SM BR SCT040
     FM240800 00000KT 1/2SM FG VV002=



000
FTUS41 KILN 231500 AAB
TAFCMH
TAF AMD
KCMH 231531Z 2316/2412 07006KT P6SM BKN040
     FM240100 06004KT P6SM BKN040
     FM240800 00000KT 3SM BR SCT040=



000
FTUS41 KILN 231500 AAB
TAFLCK
TAF AMD
KLCK 231531Z 2316/2412 07003KT P6SM BKN015
     FM231700 05005KT P6SM BKN040
     FM240100 06003KT P6SM BKN040
     FM240400 00000KT 2SM BR SCT040
     FM240800 00000KT 1/2SM FG VV002=



000
FTUS41 KILN 231500 AAA
TAFILN
TAF AMD
KILN 231530Z 2316/2412 05004KT P6SM BKN015
     FM231700 10006KT P6SM BKN035
     FM240100 04005KT P6SM BKN040
     FM240400 00000KT 2SM BR SCT040
     FM240800 00000KT 1/2SM FG VV002=



000
FTUS41 KILN 231500 AAC
TAFLUK
TAF AMD
KLUK 231527Z 2315/2412 04005KT P6SM BKN040
     FM240100 00000KT P6SM VCSH BKN040
     FM240400 00000KT 2SM BR SCT040
     FM240800 00000KT 1/4SM FG VV001=



000
FTUS41 KILN 231500 AAB
TAFCVG
TAF AMD
KCVG 231511Z 2315/2418 05006KT P6SM BKN040
     FM240100 04003KT P6SM VCSH BKN040
     FM240600 00000KT 3SM BR SCT040
     FM240800 00000KT 1SM BR SCT040
     FM241400 06005KT P6SM SCT040=



000
FTUS41 KILN 231400 AAB
TAFLUK
TAF AMD
KLUK 231407Z 2314/2412 06003KT P6SM BKN015
     FM231600 04005KT P6SM BKN040
     FM240100 00000KT P6SM VCSH BKN040
     FM240400 00000KT 2SM BR SCT040
     FM240800 00000KT 1/4SM FG VV001=



000
FTUS41 KILN 231400 AAB
TAFDAY
TAF AMD
KDAY 231406Z 2314/2412 08005KT P6SM BKN035
     FM231900 09007KT P6SM BKN035
     FM240100 04005KT P6SM VCSH BKN040
     FM240600 00000KT 3SM BR SCT040=



000
FTUS41 KILN 231300 AAA
TAFLCK
TAF AMD
KLCK 231308Z 2313/2412 00000KT 4SM BR BKN004
     FM231400 07003KT P6SM SCT012
     FM231800 05005KT P6SM SCT040
     FM240100 06003KT P6SM BKN040
     FM240400 00000KT 2SM BR SCT040
     FM240800 00000KT 1/2SM FG VV002=



000
FTUS41 KILN 231300 AAA
TAFCMH
TAF AMD
KCMH 231307Z 2313/2412 08003KT P6SM SCT012
      TEMPO 2313/2314 5SM BR
     FM231800 05006KT P6SM SCT040
     FM240100 06004KT P6SM BKN040
     FM240800 00000KT 3SM BR SCT040=



000
FTUS41 KILN 231300 AAA
TAFILN
TAF AMD
KILN 231306Z 2313/2412 05004KT P6SM SCT120
      TEMPO 2313/2314 5SM BR SCT008
     FM231700 10006KT P6SM BKN035
     FM240100 04005KT P6SM BKN040
     FM240400 00000KT 2SM BR SCT040
     FM240800 00000KT 1/2SM FG VV002=



000
FTUS41 KILN 231300 AAA
TAFDAY
TAF AMD
KDAY 231304Z 2313/2412 06003KT 4SM BR SCT015
      TEMPO 2313/2314 2SM BR BKN002
     FM231400 08005KT P6SM BKN025
     FM231900 09007KT P6SM BKN035
     FM240100 04005KT P6SM VCSH BKN040
     FM240600 00000KT 3SM BR SCT040=



000
FTUS41 KILN 231300 AAA
TAFCVG
TAF AMD
KCVG 231303Z 2313/2418 06004KT P6SM SCT120
     FM231800 05006KT P6SM BKN040
     FM240100 04003KT P6SM VCSH BKN040
     FM240600 00000KT 3SM BR SCT040
     FM240800 00000KT 1SM BR SCT040
     FM241400 06005KT P6SM SCT040=



000
FTUS41 KILN 231300 AAA
TAFLUK
TAF AMD
KLUK 231303Z 2313/2412 06003KT 4SM BR SCT008
      TEMPO 2313/2314 2SM BR BKN002
     FM231500 05004KT P6SM SCT040
     FM231800 04005KT P6SM BKN040
     FM240100 00000KT P6SM VCSH BKN040
     FM240400 00000KT 2SM BR SCT040
     FM240800 00000KT 1/4SM FG VV001=



000
FTUS41 KILN 231100
TAFCVG
TAF
KCVG 231127Z 2312/2418 00000KT 5SM BR FEW080 SCT200
      TEMPO 2312/2313 2SM BR
     FM231400 06004KT P6SM SCT025
     FM231800 05006KT P6SM BKN040
     FM240100 04003KT P6SM VCSH BKN040
     FM240600 00000KT 3SM BR SCT040
     FM240800 00000KT 1SM BR SCT040
     FM241400 06005KT P6SM SCT040=



000
FTUS41 KILN 231100
TAFILN
TAF
KILN 231127Z 2312/2412 00000KT 1/4SM FG VV001
     FM231300 00000KT 4SM BR BKN009
     FM231500 09003KT P6SM BKN018
     FM231700 10006KT P6SM BKN035
     FM240100 04005KT P6SM BKN040
     FM240400 00000KT 2SM BR SCT040
     FM240800 00000KT 1/2SM FG VV002=



000
FTUS41 KILN 231100
TAFDAY
TAF
KDAY 231127Z 2312/2412 00000KT 1/4SM FG VV001
     FM231300 06003KT 4SM BR SCT009
     FM231400 08005KT P6SM BKN025
     FM231900 09007KT P6SM BKN035
     FM240100 04005KT P6SM VCSH BKN040
     FM240600 00000KT 3SM BR SCT040=



000
FTUS41 KILN 231100
TAFLCK
TAF
KLCK 231127Z 2312/2412 00000KT 1/4SM FG OVC002
     FM231300 00000KT 4SM BR BKN012
     FM231400 07003KT P6SM SCT012
     FM231800 05005KT P6SM SCT040
     FM240100 06003KT P6SM BKN040
     FM240400 00000KT 2SM BR SCT040
     FM240800 00000KT 1/2SM FG VV002=



000
FTUS41 KILN 231100
TAFCMH
TAF
KCMH 231127Z 2312/2412 00000KT 5SM BR SCT003
     FM231300 08003KT P6SM SCT012
     FM231800 05006KT P6SM SCT040
     FM240100 06004KT P6SM BKN040
     FM240800 00000KT 3SM BR SCT040=



000
FTUS41 KILN 231100
TAFLUK
TAF
KLUK 231127Z 2312/2412 00000KT 1/4SM FG VV002
     FM231300 06003KT 4SM BR SCT008
     FM231500 05004KT P6SM SCT040
     FM231800 04005KT P6SM BKN040
     FM240100 00000KT P6SM VCSH BKN040
     FM240400 00000KT 2SM BR SCT040
     FM240800 00000KT 1/4SM FG VV001=



000
FTUS41 KILN 231000 AAD
TAFCVG
TAF AMD
KCVG 231030Z 2311/2412 00000KT 1/4SM FG VV002
     FM231300 06003KT 4SM BR SCT012
     FM231400 06004KT P6SM SCT025
     FM231800 05006KT P6SM BKN040
     FM240100 04003KT P6SM VCSH BKN040
     FM240800 00000KT 3SM BR SCT040=



000
FTUS41 KILN 231000 AAC
TAFCMH
TAF AMD
KCMH 231030Z 2311/2406 00000KT 1SM BR BKN001
     FM231300 06003KT 4SM BR SCT012
     FM231400 06004KT P6SM SCT025
     FM231800 05005KT P6SM SCT040
     FM240100 06004KT P6SM BKN040=



000
FTUS41 KILN 231000 AAC
TAFILN
TAF AMD
KILN 231007Z 2310/2406 00000KT 1/4SM FG VV001
     FM231300 00000KT 4SM BR BKN012
     FM231500 09003KT P6SM BKN018
     FM231700 10005KT P6SM BKN035
     FM240100 04005KT P6SM BKN040
     FM240400 00000KT 2SM BR SCT040=



000
FTUS41 KILN 230900 AAB
TAFDAY
TAF AMD
KDAY 230954Z 2310/2406 00000KT 1/2SM FG OVC001
     FM231500 08005KT P6SM BKN025
     FM231900 09005KT P6SM BKN035
     FM240100 04005KT P6SM VCSH BKN040=



000
FTUS41 KILN 230900 AAC
TAFCVG
TAF AMD
KCVG 230954Z 2310/2412 00000KT 1/4SM FG VV001
     FM231500 30004KT P6SM SCT025
     FM231800 31006KT P6SM BKN040
     FM240100 04003KT P6SM VCSH BKN040
     FM240800 00000KT 3SM BR SCT040=



000
FTUS41 KILN 230900 AAB
TAFILN
TAF AMD
KILN 230917Z 2309/2406 05003KT 1/2SM FG VV003
     FM231300 00000KT 4SM BR BKN012
     FM231500 09003KT P6SM BKN018
     FM231700 10005KT P6SM BKN035
     FM240100 04005KT P6SM BKN040
     FM240400 00000KT 2SM BR SCT040=



000
FTUS41 KILN 230800 AAA
TAFDAY
TAF AMD
KDAY 230859Z 2309/2406 00000KT 5SM BR SCT140
     FM231500 08005KT P6SM BKN025
     FM231900 09005KT P6SM BKN035
     FM240100 04005KT P6SM VCSH BKN040=



000
FTUS41 KILN 230800 AAB
TAFCMH
TAF AMD
KCMH 230859Z 2309/2406 00000KT 3SM BR SKC
     FM231300 08003KT P6SM SCT012
     FM231800 05005KT P6SM SCT040
     FM240100 06004KT P6SM BKN040=



000
FTUS41 KILN 230800 AAB
TAFCVG
TAF AMD
KCVG 230859Z 2309/2412 00000KT 1 1/2SM BR SKC
     FM231500 30004KT P6SM SCT025
     FM231800 31006KT P6SM BKN040
     FM240100 04003KT P6SM VCSH BKN040
     FM240800 00000KT 3SM BR SCT040=



000
FTUS41 KILN 230800 AAC
TAFLUK
TAF AMD
KLUK 230859Z 2309/2406 00000KT 1/4SM FG VV003
     FM231300 00000KT 4SM BR SCT025
     FM231500 30004KT P6SM SCT040
     FM231800 31005KT P6SM BKN040
     FM240100 00000KT P6SM VCSH BKN040
     FM240400 00000KT 2SM BR SCT040=



000
FTUS41 KILN 230800 AAA
TAFILN
TAF AMD
KILN 230859Z 2309/2406 00000KT 1 1/2SM BR SKC
     FM231300 00000KT 4SM BR BKN012
     FM231500 09003KT P6SM BKN018
     FM231700 10005KT P6SM BKN035
     FM240100 04005KT P6SM BKN040
     FM240400 00000KT 2SM BR SCT040=



000
FTUS41 KILN 230800 AAD
TAFLCK
TAF AMD
KLCK 230859Z 2309/2406 00000KT 1/4SM FG OVC002
     FM231300 00000KT 4SM BR BKN012
     FM231400 07003KT P6SM SCT012
     FM231800 05004KT P6SM SCT040
     FM240100 06003KT P6SM BKN040
     FM240400 00000KT 2SM BR SCT040=



000
FTUS41 KILN 230700 AAC
TAFLCK
TAF AMD
KLCK 230726Z 2307/2406 00000KT 1/4SM FG OVC004
     FM231300 00000KT 4SM BR BKN012
     FM231400 07003KT P6SM SCT012
     FM231800 05004KT P6SM SCT040
     FM240100 06003KT P6SM BKN040=



000
FTUS41 KILN 230700 AAB
TAFLCK
TAF AMD
KLCK 230719Z 2307/2406 00000KT 1/2SM FG OVC004
     FM231300 00000KT 4SM BR BKN012
     FM231400 07003KT P6SM SCT012
     FM231800 05004KT P6SM SCT040
     FM240100 06003KT P6SM BKN040=



000
FTUS41 KILN 230600 AAA
TAFCVG
TAF AMD
KCVG 230657Z 2307/2412 00000KT 4SM BR FEW045
     FM231500 30004KT P6SM SCT025
     FM231800 31006KT P6SM BKN040
     FM240100 04005KT P6SM VCSH BKN040=



000
FTUS41 KILN 230600 AAB
TAFLUK
TAF AMD
KLUK 230648Z 2307/2406 20003KT 1/4SM FG VV003
     FM231300 00000KT 4SM BR SCT025
     FM231500 30004KT P6SM SCT040
     FM231800 31005KT P6SM BKN040
     FM240100 00000KT P6SM VCSH BKN040=



000
FTUS41 KILN 230600 AAA
TAFLCK
TAF AMD
KLCK 230648Z 2307/2406 00000KT 1/4SM FG OVC004
     FM231300 00000KT 4SM BR BKN012
     FM231400 07003KT P6SM SCT012
     FM231800 05004KT P6SM SCT040
     FM240100 06003KT P6SM BKN040=



000
FTUS41 KILN 230600 AAA
TAFLUK
TAF AMD
KLUK 230604Z 2306/2406 00000KT 1 1/2SM BR SCT060
     FM230800 00000KT 1SM BR SCT060 BKN250
      TEMPO 2308/2312 1/4SM FG VV002
     FM231300 00000KT 4SM BR SCT025
     FM231500 30004KT P6SM SCT040
     FM231800 31005KT P6SM BKN040
     FM240100 00000KT P6SM VCSH BKN040=



000
FTUS41 KILN 230600 AAA
TAFCMH
TAF AMD
KCMH 230604Z 2306/2406 00000KT 5SM BR SKC
     FM230900 00000KT 1SM BR BKN010
     FM231300 08003KT P6SM SCT012
     FM231800 05005KT P6SM SCT040
     FM240100 06004KT P6SM BKN040=



000
FTUS41 KILN 230500
TAFCVG
TAF
KCVG 230531Z 2306/2412 00000KT P6SM OVC045
     FM231500 30004KT P6SM SCT025
     FM231800 31006KT P6SM BKN040
     FM240100 04005KT P6SM VCSH BKN040=



000
FTUS41 KILN 230500
TAFLCK
TAF
KLCK 230531Z 2306/2406 33004KT P6SM FEW250
     FM230800 00000KT 1SM BR BKN010
     FM231300 00000KT 4SM BR BKN012
     FM231400 07003KT P6SM SCT012
     FM231800 05004KT P6SM SCT040
     FM240100 06003KT P6SM BKN040=



000
FTUS41 KILN 230500
TAFDAY
TAF
KDAY 230531Z 2306/2406 00000KT P6SM SCT050
     FM231500 08005KT P6SM BKN025
     FM231900 09005KT P6SM BKN035
     FM240100 04005KT P6SM VCSH BKN040=



000
FTUS41 KILN 230500
TAFCMH
TAF
KCMH 230531Z 2306/2406 00000KT P6SM FEW250
     FM230900 00000KT 1SM BR BKN010
     FM231300 08003KT P6SM SCT012
     FM231800 05005KT P6SM SCT040
     FM240100 06004KT P6SM BKN040=



000
FTUS41 KILN 230500
TAFLUK
TAF
KLUK 230531Z 2306/2406 00000KT P6SM OVC050
     FM230800 00000KT 1SM BR SCT060 BKN250
      TEMPO 2308/2312 1/4SM FG VV002
     FM231300 00000KT 4SM BR SCT025
     FM231500 30004KT P6SM SCT040
     FM231800 31005KT P6SM BKN040
     FM240100 00000KT P6SM VCSH BKN040=



000
FTUS41 KILN 230500
TAFILN
TAF
KILN 230531Z 2306/2406 00000KT 3/4SM BR SCT050
     FM231300 00000KT 4SM BR BKN012
     FM231500 09003KT P6SM BKN018
     FM231700 10005KT P6SM BKN035
     FM240100 04005KT P6SM BKN040=



000
FTUS41 KILN 230200 AAA
TAFILN
TAF AMD
KILN 230253Z 2303/2324 00000KT 1SM BR FEW035 SCT250
      TEMPO 2303/2306 1/4SM FG
     FM230600 00000KT 1/4SM FG VV001
     FM231300 00000KT 4SM BR BKN012
     FM231500 09003KT P6SM BKN018
     FM231700 10005KT P6SM BKN035=



000
FTUS41 KILN 222300
TAFDAY
TAF
KDAY 222339Z 2300/2324 31005KT P6SM SCT035
     FM230600 00000KT 5SM BR SCT010
     FM231000 00000KT 1SM BR BKN008
     FM231300 08004KT 5SM BR BKN012
     FM231500 08005KT P6SM BKN025
     FM231900 09005KT P6SM BKN035=



000
FTUS41 KILN 222300
TAFCVG
TAF
KCVG 222339Z 2300/2406 30003KT P6SM SCT050
     FM230600 00000KT 4SM BR FEW025 SCT060
      TEMPO 2308/2312 1SM BR
     FM231500 30004KT P6SM SCT025
     FM231800 31006KT P6SM BKN040
     FM232300 04005KT P6SM VCSH BKN040=



000
FTUS41 KILN 222300
TAFLCK
TAF
KLCK 222339Z 2300/2324 VRB03KT P6SM VCSH SCT025 BKN035
     FM230300 00000KT P6SM SCT025 BKN035
     FM230600 00000KT 4SM BR SCT010
     FM230800 00000KT 1SM BR BKN010
     FM231300 00000KT 4SM BR BKN012
     FM231400 07003KT P6SM SCT012
     FM231800 05004KT P6SM SCT040
     FM232100 06003KT P6SM VCSH BKN040=



000
FTUS41 KILN 222300
TAFCMH
TAF
KCMH 222339Z 2300/2324 VRB03KT P6SM VCSH SCT025 BKN035
     FM230300 00000KT P6SM SCT025 BKN035
     FM230600 00000KT 4SM BR SCT010
     FM230900 00000KT 1SM BR BKN010
     FM231300 08003KT P6SM SCT012
     FM231800 05005KT P6SM SCT040
     FM232100 06004KT P6SM VCSH BKN040=



000
FTUS41 KILN 222300
TAFLUK
TAF
KLUK 222339Z 2300/2324 30003KT P6SM SCT050
     FM230600 00000KT 3SM BR FEW025 SCT060
     FM230800 00000KT 1SM BR SCT060 BKN250
      TEMPO 2308/2312 1/4SM FG VV002
     FM231300 00000KT 4SM BR SCT025
     FM231500 30004KT P6SM SCT040
     FM231800 31005KT P6SM BKN040
     FM232300 00000KT P6SM VCSH BKN040=



000
FTUS41 KILN 222300
TAFILN
TAF
KILN 222339Z 2300/2324 30004KT P6SM VCSH BKN040
     FM230100 00000KT P6SM SCT040
     FM230600 00000KT 3SM BR SCT012
     FM230800 00000KT 1SM BR BKN008
      TEMPO 2308/2312 1/4SM FG VV001
     FM231300 00000KT 4SM BR BKN012
     FM231500 09003KT P6SM BKN018
     FM231700 10005KT P6SM BKN035=



000
FTUS41 KILN 222100 AAA
TAFLUK
TAF AMD
KLUK 222116Z 2221/2318 27007KT P6SM VCSH BKN035
     FM230000 31003KT P6SM BKN250
     FM230600 00000KT 3SM BR FEW060 BKN250
     FM230800 00000KT 1SM BR SCT060 BKN250
      TEMPO 2309/2312 1/4SM FG VV001
     FM231400 VRB02KT 4SM BR SCT050
     FM231500 06004KT P6SM SCT050=



000
FTUS41 KILN 222100 AAA
TAFILN
TAF AMD
KILN 222115Z 2221/2318 25007KT P6SM VCSH BKN035 OVC100
     FM230000 31004KT P6SM SCT020 BKN250
     FM230600 VRB03KT 4SM BR SCT015 BKN250
     FM230800 VRB03KT 1SM BR BKN008
     FM231400 08003KT 4SM BR SCT010
     FM231500 07004KT P6SM SCT020=



000
FTUS41 KILN 222100 AAA
TAFDAY
TAF AMD
KDAY 222115Z 2221/2318 34008KT P6SM VCSH BKN035
     FM230000 31005KT P6SM SCT020 BKN250
     FM230700 VRB03KT 5SM BR SCT010 BKN250
     FM231000 VRB03KT 4SM BR BKN008
     FM231400 08004KT P6SM SCT020=



000
FTUS41 KILN 222100 AAA
TAFCVG
TAF AMD
KCVG 222102Z 2221/2324 26006KT P6SM VCSH SCT025 BKN035
     FM230000 30005KT P6SM BKN250
     FM230800 VRB02KT 4SM BR SCT060 BKN250
     FM231400 08005KT P6SM SCT050=



000
FTUS41 KILN 222100 AAA
TAFLCK
TAF AMD
KLCK 222101Z 2221/2318 20005KT P6SM -SHRA SCT025 BKN035
     FM230000 32003KT P6SM SCT020 BKN250
     FM230600 VRB03KT 4SM BR SCT010
      TEMPO 2309/2312 2SM BR
     FM231300 05004KT P6SM SCT025=



000
FTUS41 KILN 222100 AAA
TAFCMH
TAF AMD
KCMH 222100Z 2221/2318 21007KT P6SM -SHRA SCT025 OVC035
     FM230000 34004KT P6SM SCT020 BKN250
     FM230800 VRB03KT 4SM BR SCT010
     FM231300 05004KT P6SM SCT025=



000
FTUS41 KILN 221700
TAFLUK
TAF
KLUK 221738Z 2218/2318 24007KT P6SM SCT070 BKN250
     FM230100 31003KT P6SM BKN250
     FM230600 00000KT 3SM BR FEW060 BKN250
     FM230800 00000KT 1SM BR SCT060 BKN250
      TEMPO 2309/2312 1/4SM FG VV001
     FM231400 VRB02KT 4SM BR SCT050
     FM231500 06004KT P6SM SCT050=



000
FTUS41 KILN 221700
TAFCVG
TAF
KCVG 221738Z 2218/2324 25008KT P6SM SCT070 BKN250
     FM230100 30005KT P6SM BKN250
     FM230800 VRB02KT 4SM BR SCT060 BKN250
     FM231400 08005KT P6SM SCT050=



000
FTUS41 KILN 221700
TAFCMH
TAF
KCMH 221738Z 2218/2318 18005KT P6SM SCT015 BKN100
      TEMPO 2218/2220 BKN015
     FM222000 23006KT P6SM SCT020 BKN250
     FM230000 34004KT P6SM SCT020 BKN250
     FM230800 VRB03KT 4SM BR SCT010
     FM231300 05004KT P6SM SCT025=



000
FTUS41 KILN 221700
TAFILN
TAF
KILN 221738Z 2218/2318 23007KT P6SM FEW020 BKN250
     FM230100 31004KT P6SM SCT020 BKN250
     FM230600 VRB03KT 4SM BR SCT015 BKN250
     FM230800 VRB03KT 1SM BR BKN008
     FM231400 08003KT 4SM BR SCT010
     FM231500 07004KT P6SM SCT020=



000
FTUS41 KILN 221700
TAFLCK
TAF
KLCK 221738Z 2218/2318 20005KT P6SM SCT015 BKN100
      TEMPO 2218/2220 BKN015
     FM222000 24006KT P6SM SCT020 BKN250
     FM230000 32003KT P6SM SCT020 BKN250
     FM230600 VRB03KT 4SM BR SCT010
      TEMPO 2309/2312 2SM BR
     FM231300 05004KT P6SM SCT025=



000
FTUS41 KILN 221700
TAFDAY
TAF
KDAY 221738Z 2218/2318 26007KT P6SM FEW020 BKN250
     FM230000 31005KT P6SM SCT020 BKN250
     FM230700 VRB03KT 5SM BR SCT010 BKN250
     FM231000 VRB03KT 4SM BR BKN008
     FM231400 08004KT P6SM SCT020=



000
FTUS41 KILN 221600 AAB
TAFILN
TAF AMD
KILN 221603Z 2216/2312 21003KT P6SM -SHRA OVC004
     FM221700 22005KT P6SM SCT004 BKN060
     FM221900 24009KT P6SM BKN035
     FM230300 24004KT P6SM SCT040 BKN080=



000
FTUS41 KILN 221500 AAA
TAFILN
TAF AMD
KILN 221521Z 2215/2312 21003KT P6SM -SHRA OVC004
     FM221600 22005KT P6SM SCT004 BKN060
     FM221800 24009KT P6SM BKN035
     FM230300 24004KT P6SM SCT040 BKN080=



000
FTUS41 KILN 221400 AAA
TAFLUK
TAF AMD
KLUK 221459Z 2215/2312 22005KT P6SM SCT070 OVC250
     FM221800 25007KT P6SM SCT045 BKN250
     FM230300 24004KT P6SM SCT040 BKN080=



000
FTUS41 KILN 221400 AAA
TAFCVG
TAF AMD
KCVG 221459Z 2215/2318 25006KT P6SM SCT070 OVC250
     FM221800 25008KT P6SM SCT040 BKN250
     FM230300 24004KT P6SM SCT040 BKN080
     FM231300 28006KT P6SM BKN040=



000
FTUS41 KILN 221400 AAA
TAFDAY
TAF AMD
KDAY 221455Z 2215/2312 23006KT P6SM -SHRA FEW040 BKN100
     FM221600 24008KT P6SM SCT040 BKN100
     FM222000 26007KT P6SM BKN040
     FM230300 24004KT P6SM SCT040 BKN080=



000
FTUS41 KILN 221400 AAA
TAFLCK
TAF AMD
KLCK 221415Z 2214/2312 VRB02KT P6SM BKN018
     FM221600 22005KT P6SM BKN035
     FM222000 25008KT P6SM VCTS BKN035CB
     FM230000 24004KT P6SM SCT040 BKN080=



000
FTUS41 KILN 221400 AAA
TAFCMH
TAF AMD
KCMH 221415Z 2214/2312 VRB03KT P6SM BKN018
     FM221600 22005KT P6SM BKN035
     FM222000 25008KT P6SM VCTS BKN035CB
     FM230000 24004KT P6SM SCT040 BKN080=



000
FTUS41 KILN 221400 AAA
TAFILN
TAF AMD
KILN 221407Z 2214/2312 23005KT 5SM -SHRA BR SCT020 OVC120
     FM221800 24009KT P6SM BKN035
     FM230300 24004KT P6SM SCT040 BKN080=



000
FTUS41 KILN 221100 RRA
TAFCMH
TAF
KCMH 221144Z 2212/2312 17006KT 5SM BR VCSH SCT020 BKN060
     FM221400 23004KT P6SM BKN040
     FM222000 25008KT P6SM VCTS BKN035CB
     FM230000 24004KT P6SM SCT040 BKN080=



000
FTUS41 KILN 221100 RRA
TAFCVG
TAF
KCVG 221144Z 2212/2318 20007KT P6SM FEW040 OVC150
     FM221500 23008KT P6SM VCTS BKN035CB OVC150
     FM221800 24008KT P6SM BKN040
     FM230300 24004KT P6SM SCT040 BKN080
     FM231300 28006KT P6SM BKN040=



000
FTUS41 KILN 221100 RRA
TAFLCK
TAF
KLCK 221144Z 2212/2312 17006KT 5SM BR SCT020 BKN060
     FM221400 23005KT P6SM BKN040
     FM222000 25008KT P6SM VCTS BKN035CB
     FM230000 24004KT P6SM SCT040 BKN080=



000
FTUS41 KILN 221100 RRA
TAFDAY
TAF
KDAY 221144Z 2212/2312 21007KT P6SM -SHRA SCT050 OVC090
      TEMPO 2212/2216 4SM -TSRA BR OVC050CB
     FM221700 23009KT P6SM BKN035
     FM230300 24004KT P6SM SCT040 BKN080=



000
FTUS41 KILN 221100 RRA
TAFILN
TAF
KILN 221144Z 2212/2312 21006KT P6SM -SHRA SCT050 OVC110
      TEMPO 2212/2216 5SM -TSRA BKN050CB
     FM221800 24008KT P6SM BKN035
     FM230300 24004KT P6SM SCT040 BKN080=



000
FTUS41 KILN 221100 RRA
TAFLUK
TAF
KLUK 221144Z 2212/2312 22005KT P6SM FEW045 OVC150
     FM221500 22007KT P6SM VCTS BKN040CB OVC150
     FM222000 24007KT P6SM BKN040
     FM230300 24004KT P6SM SCT040 BKN080=



000
FTUS41 KILN 221000 AAD
TAFCVG
TAF AMD
KCVG 221009Z 2210/2312 18006KT 5SM BR VCSH FEW040 OVC150
     FM221500 25008KT P6SM -SHRA VCTS BKN035CB OVC150
     FM222000 27007KT P6SM BKN040
     FM230000 25004KT P6SM VCTS BKN040CB
     FM230300 24004KT P6SM SCT040 BKN080=



000
FTUS41 KILN 221000 AAD
TAFLCK
TAF AMD
KLCK 221009Z 2210/2306 14003KT 5SM BR SCT060 SCT070 BKN090
     FM221200 22005KT P6SM VCSH SCT020 OVC090
      TEMPO 2212/2216 3SM TSRA OVC020CB
     FM221800 25008KT P6SM BKN035
     FM222300 25008KT P6SM VCTS BKN035CB
     FM230300 24004KT P6SM SCT040 BKN080=



000
FTUS41 KILN 221000 AAD
TAFDAY
TAF AMD
KDAY 221009Z 2210/2306 00000KT P6SM -RA BKN022 BKN050 OVC090
      TEMPO 2210/2214 5SM -TSRA BR OVC025CB
     FM221400 25008KT P6SM -SHRA VCTS OVC025CB
     FM221900 26009KT P6SM BKN035
     FM222300 27007KT P6SM VCTS BKN040CB
     FM230300 24004KT P6SM SCT040 BKN080=



000
FTUS41 KILN 221000 AAD
TAFLUK
TAF AMD
KLUK 221009Z 2210/2306 22003KT P6SM VCSH FEW040 OVC150
     FM221500 25008KT P6SM -SHRA VCTS BKN035CB OVC150
     FM222000 27007KT P6SM BKN040
     FM230000 25004KT P6SM VCTS BKN040CB
     FM230300 24004KT P6SM SCT040 BKN080=



000
FTUS41 KILN 221000 AAB
TAFILN
TAF AMD
KILN 221009Z 2210/2306 21005KT P6SM -RA SCT040 OVC100
      TEMPO 2210/2214 2SM -TSRA OVC025CB
     FM221400 23007KT P6SM -SHRA VCTS BKN022CB
     FM221900 25009KT P6SM BKN035
     FM222300 25008KT P6SM VCTS BKN035CB
     FM230300 24004KT P6SM SCT040 BKN080=



000
FTUS41 KILN 221000 AAD
TAFCMH
TAF AMD
KCMH 221009Z 2210/2306 16004KT 5SM BR SCT019 SCT060 BKN090
     FM221200 23005KT P6SM VCSH SCT020 OVC090
      TEMPO 2212/2216 3SM TSRA OVC020CB
     FM221600 23007KT P6SM -SHRA VCTS OVC022CB
     FM221800 25008KT P6SM BKN035
     FM222300 25008KT P6SM VCTS BKN035CB
     FM230300 24004KT P6SM SCT040 BKN080=



000
FTUS41 KILN 220900 AAC
TAFLCK
TAF AMD
KLCK 220900Z 2209/2306 18004KT P6SM SCT100
     FM221200 22005KT P6SM VCSH OVC012
     FM221500 23007KT P6SM -SHRA VCTS OVC022CB
     FM221800 25008KT P6SM BKN035
     FM222300 25008KT P6SM VCTS BKN035CB
     FM230300 24004KT P6SM SCT040 BKN080=



000
FTUS41 KILN 220900 AAC
TAFCMH
TAF AMD
KCMH 220900Z 2209/2306 00000KT 6SM BR SCT100
     FM221200 23005KT P6SM VCSH OVC012
     FM221500 23007KT P6SM -SHRA VCTS OVC022CB
     FM221800 25008KT P6SM BKN035
     FM222300 25008KT P6SM VCTS BKN035CB
     FM230300 24004KT P6SM SCT040 BKN080=



000
FTUS41 KILN 220900 AAC
TAFDAY
TAF AMD
KDAY 220900Z 2209/2306 02007KT P6SM BKN028 BKN080 OVC110
      TEMPO 2209/2211 5SM -TSRA BR OVC025CB
     FM221300 23006KT P6SM VCSH BKN015
     FM221500 25008KT P6SM -SHRA VCTS BKN022CB
     FM221900 26009KT P6SM BKN035
     FM222300 27007KT P6SM VCTS BKN040CB
     FM230300 24004KT P6SM SCT040 BKN080=



000
FTUS41 KILN 220900 AAA
TAFILN
TAF AMD
KILN 220900Z 2209/2306 25005KT P6SM BKN100
      TEMPO 2209/2211 2SM -TSRA OVC025CB
     FM221300 23005KT P6SM VCSH BKN015
     FM221500 23007KT P6SM -SHRA VCTS BKN022CB
     FM221900 25009KT P6SM BKN035
     FM222300 25008KT P6SM VCTS BKN035CB
     FM230300 24004KT P6SM SCT040 BKN080=



000
FTUS41 KILN 220900 AAC
TAFCVG
TAF AMD
KCVG 220900Z 2209/2312 16004KT 5SM BR VCSH SCT100 OVC150
     FM221500 25008KT P6SM -SHRA VCTS BKN035CB OVC150
     FM222000 27007KT P6SM BKN040
     FM230000 25004KT P6SM VCTS BKN040CB
     FM230300 24004KT P6SM SCT040 BKN080=



000
FTUS41 KILN 220900 AAC
TAFLUK
TAF AMD
KLUK 220900Z 2209/2306 07003KT 1 1/2SM BR VCSH FEW050 BKN150
     FM221500 25008KT P6SM -SHRA VCTS BKN035CB OVC150
     FM222000 27007KT P6SM BKN040
     FM230000 25004KT P6SM VCTS BKN040CB
     FM230300 24004KT P6SM SCT040 BKN080=



000
FTUS41 KILN 220700 AAB
TAFCVG
TAF AMD
KCVG 220703Z 2207/2312 20004KT P6SM SCT110 OVC140
     FM220800 21005KT P6SM VCSH BKN035 OVC200
     FM221500 25008KT P6SM -SHRA VCTS BKN035CB OVC150
     FM222000 27007KT P6SM BKN040
     FM230000 25004KT P6SM VCTS BKN040CB
     FM230300 24004KT P6SM SCT040 BKN080=



000
FTUS41 KILN 220700 AAB
TAFCMH
TAF AMD
KCMH 220703Z 2207/2306 27008KT P6SM VCSH FEW007 BKN019 BKN100
     FM220900 23004KT 5SM -SHRA BR SCT012 OVC035
     FM221200 23005KT P6SM VCSH OVC012
     FM221500 23007KT P6SM -SHRA VCTS OVC022CB
     FM221800 25008KT P6SM BKN035
     FM222300 25008KT P6SM VCTS BKN035CB
     FM230300 24004KT P6SM SCT040 BKN080=



000
FTUS41 KILN 220700 AAB
TAFLUK
TAF AMD
KLUK 220703Z 2207/2306 19004KT P6SM SCT110 OVC140
     FM220800 21005KT P6SM VCSH BKN035 OVC200
      TEMPO 2208/2212 3SM BR
     FM221500 25008KT P6SM -SHRA VCTS BKN035CB OVC150
     FM222000 27007KT P6SM BKN040
     FM230000 25004KT P6SM VCTS BKN040CB
     FM230300 24004KT P6SM SCT040 BKN080=



000
FTUS41 KILN 220700 AAB
TAFLCK
TAF AMD
KLCK 220703Z 2207/2306 27006KT P6SM VCSH SCT035 BKN040 BKN110
     FM220900 21004KT 5SM -SHRA BR SCT012 OVC035
     FM221200 22005KT P6SM VCSH OVC012
     FM221500 23007KT P6SM -SHRA VCTS OVC022CB
     FM221800 25008KT P6SM BKN035
     FM222300 25008KT P6SM VCTS BKN035CB
     FM230300 24004KT P6SM SCT040 BKN080=



000
FTUS41 KILN 220700 AAB
TAFDAY
TAF AMD
KDAY 220703Z 2207/2306 26013KT P6SM -RA BKN120 OVC150
      TEMPO 2207/2211 5SM -TSRA BR OVC025CB
     FM221300 23006KT P6SM VCSH BKN015
     FM221500 25008KT P6SM -SHRA VCTS BKN022CB
     FM221900 26009KT P6SM BKN035
     FM222300 27007KT P6SM VCTS BKN040CB
     FM230300 24004KT P6SM SCT040 BKN080=



000
FTUS41 KILN 220700 AAB
TAFILN
TAF AMD
KILN 220703Z 2207/2306 24007KT P6SM OVC090
      TEMPO 2207/2211 2SM -TSRA OVC025CB
     FM221300 23005KT P6SM VCSH BKN015
     FM221500 23007KT P6SM -SHRA VCTS BKN022CB
     FM221900 25009KT P6SM BKN035
     FM222300 25008KT P6SM VCTS BKN035CB
     FM230300 24004KT P6SM SCT040 BKN080=



000
FTUS41 KILN 220600 AAA
TAFDAY
TAF AMD
KDAY 220631Z 2207/2306 25013KT P6SM -RA OVC110
      TEMPO 2207/2210 5SM -TSRA BR OVC025CB
     FM221300 23006KT P6SM VCSH BKN015
     FM221500 25008KT P6SM -SHRA VCTS BKN022CB
     FM221900 26009KT P6SM BKN035
     FM222300 27007KT P6SM VCTS BKN040CB
     FM230300 24004KT P6SM SCT040 BKN080=



000
FTUS41 KILN 220600 AAA
TAFILN
TAF AMD
KILN 220631Z 2207/2306 27009KT P6SM -RA FEW090 BKN100
      TEMPO 2207/2210 2SM -TSRA OVC025CB
     FM221300 23005KT P6SM VCSH BKN015
     FM221500 23007KT P6SM -SHRA VCTS BKN022CB
     FM221900 25009KT P6SM BKN035
     FM222300 25008KT P6SM VCTS BKN035CB
     FM230300 24004KT P6SM SCT040 BKN080=



000
FTUS41 KILN 220600 AAA
TAFCVG
TAF AMD
KCVG 220631Z 2207/2312 15003KT P6SM -RA SCT050 BKN120 OVC180
     FM220800 21005KT P6SM VCSH BKN035 OVC200
     FM221500 25008KT P6SM -SHRA VCTS BKN035CB OVC150
     FM222000 27007KT P6SM BKN040
     FM230000 25004KT P6SM VCTS BKN040CB
     FM230300 24004KT P6SM SCT040 BKN080=



000
FTUS41 KILN 220600 AAA
TAFCMH
TAF AMD
KCMH 220631Z 2207/2306 24008KT P6SM VCSH FEW009 BKN019 BKN100
     FM220900 23004KT 5SM -SHRA BR SCT012 OVC035
     FM221200 23005KT P6SM VCSH OVC012
     FM221500 23007KT P6SM -SHRA VCTS OVC022CB
     FM221800 25008KT P6SM BKN035
     FM222300 25008KT P6SM VCTS BKN035CB
     FM230300 24004KT P6SM SCT040 BKN080=



000
FTUS41 KILN 220600 AAA
TAFLUK
TAF AMD
KLUK 220631Z 2207/2306 VRB03KT P6SM -RA FEW090 BKN120
     FM220800 21005KT P6SM VCSH BKN035 OVC200
      TEMPO 2208/2212 3SM BR
     FM221500 25008KT P6SM -SHRA VCTS BKN035CB OVC150
     FM222000 27007KT P6SM BKN040
     FM230000 25004KT P6SM VCTS BKN040CB
     FM230300 24004KT P6SM SCT040 BKN080=



000
FTUS41 KILN 220600 AAA
TAFLCK
TAF AMD
KLCK 220631Z 2207/2306 25010G16KT P6SM VCSH BKN009 OVC019
     FM220900 21004KT 5SM -SHRA BR SCT012 OVC035
     FM221200 22005KT P6SM VCSH OVC012
     FM221500 23007KT P6SM -SHRA VCTS OVC022CB
     FM221800 25008KT P6SM BKN035
     FM222300 25008KT P6SM VCTS BKN035CB
     FM230300 24004KT P6SM SCT040 BKN080=



000
FTUS41 KILN 220500
TAFILN
TAF
KILN 220533Z 2206/2306 20009KT 6SM -TSRA FEW025CB BKN090 OVC110
      TEMPO 2206/2210 2SM -TSRA OVC025CB
     FM221300 23005KT P6SM VCSH BKN015
     FM221500 23007KT P6SM -SHRA VCTS BKN022CB
     FM221900 25009KT P6SM BKN035
     FM222300 25008KT P6SM VCTS BKN035CB
     FM230300 24004KT P6SM SCT040 BKN080=



000
FTUS41 KILN 220500
TAFCMH
TAF
KCMH 220533Z 2206/2306 21007KT P6SM VCSH OVC006
     FM220900 23004KT 5SM -SHRA BR SCT012 OVC035
     FM221200 23005KT P6SM VCSH OVC012
     FM221500 23007KT P6SM -SHRA VCTS OVC022CB
     FM221800 25008KT P6SM BKN035
     FM222300 25008KT P6SM VCTS BKN035CB
     FM230300 24004KT P6SM SCT040 BKN080=



000
FTUS41 KILN 220500
TAFCVG
TAF
KCVG 220533Z 2206/2312 20008KT 4SM -RA BKN015 BKN029 OVC045
     FM220800 21005KT P6SM VCSH BKN035 OVC200
     FM221500 25008KT P6SM -SHRA VCTS BKN035CB OVC150
     FM222000 27007KT P6SM BKN040
     FM230000 25004KT P6SM VCTS BKN040CB
     FM230300 24004KT P6SM SCT040 BKN080=



000
FTUS41 KILN 220500
TAFDAY
TAF
KDAY 220533Z 2206/2306 20009KT P6SM -TSRA FEW025CB BKN090 OVC110
      TEMPO 2206/2210 5SM -TSRA BR OVC025CB
     FM221300 23006KT P6SM VCSH BKN015
     FM221500 25008KT P6SM -SHRA VCTS BKN022CB
     FM221900 26009KT P6SM BKN035
     FM222300 27007KT P6SM VCTS BKN040CB
     FM230300 24004KT P6SM SCT040 BKN080=



000
FTUS41 KILN 220500
TAFLUK
TAF
KLUK 220533Z 2206/2306 21007KT 4SM -RA BR SCT021 BKN025 OVC040
     FM220800 21005KT P6SM VCSH BKN035 OVC200
      TEMPO 2208/2212 3SM BR
     FM221500 25008KT P6SM -SHRA VCTS BKN035CB OVC150
     FM222000 27007KT P6SM BKN040
     FM230000 25004KT P6SM VCTS BKN040CB
     FM230300 24004KT P6SM SCT040 BKN080=



000
FTUS41 KILN 220500
TAFLCK
TAF
KLCK 220533Z 2206/2306 16005KT P6SM VCSH SCT015 BKN090
     FM220900 21004KT 5SM -SHRA BR SCT012 OVC035
     FM221200 22005KT P6SM VCSH OVC012
     FM221500 23007KT P6SM -SHRA VCTS OVC022CB
     FM221800 25008KT P6SM BKN035
     FM222300 25008KT P6SM VCTS BKN035CB
     FM230300 24004KT P6SM SCT040 BKN080=



000
FTUS41 KILN 220400 AAD
TAFLUK
TAF AMD
KLUK 220420Z 2204/2224 21005KT P6SM -TSRA BKN040CB OVC250
      TEMPO 2205/2208 34020G30KT 2SM -TSRA OVC025CB
     FM220800 21005KT P6SM VCSH BKN035 OVC200
      TEMPO 2208/2212 3SM BR
     FM221500 25008KT P6SM -SHRA VCTS BKN035CB OVC150
     FM222000 27007KT P6SM BKN040=



000
FTUS41 KILN 220400 AAB
TAFCVG
TAF AMD
KCVG 220420Z 2204/2306 21007KT P6SM -TSRA BKN040CB OVC250
      TEMPO 2204/2208 34020G31KT 4SM -TSRA OVC025CB
     FM220800 21005KT P6SM VCSH BKN035 OVC200
     FM221500 25008KT P6SM -SHRA VCTS BKN035CB OVC150
     FM222000 27007KT P6SM BKN040
     FM230000 25004KT P6SM VCTS BKN040CB
     FM230300 24004KT P6SM SCT040 BKN080=



000
FTUS41 KILN 220300 AAC
TAFCMH
TAF AMD
KCMH 220340Z 2204/2224 00000KT P6SM SCT018 OVC090
      TEMPO 2204/2208 34020G32KT 2SM -TSRA OVC018CB
     FM220900 23004KT 5SM -SHRA BR SCT012 BKN035
     FM221200 23005KT P6SM VCSH BKN012
     FM221500 23007KT P6SM -SHRA VCTS BKN022CB
     FM221800 25008KT P6SM BKN035=



000
FTUS41 KILN 220300 AAA
TAFCVG
TAF AMD
KCVG 220323Z 2203/2306 21005KT P6SM FEW035 SCT150
     FM220500 21005KT P6SM -SHRA VCTS BKN040CB OVC250
      TEMPO 2205/2208 34020G31KT 4SM -TSRA OVC025CB
     FM220800 21005KT P6SM VCSH BKN035 OVC200
     FM221500 25008KT P6SM -SHRA VCTS BKN035CB OVC150
     FM222000 27007KT P6SM BKN040
     FM230000 25004KT P6SM VCTS BKN040CB
     FM230300 24004KT P6SM SCT040 BKN080=



000
FTUS41 KILN 220300 AAC
TAFLUK
TAF AMD
KLUK 220323Z 2203/2224 00000KT P6SM BKN040
     FM220500 21005KT P6SM -SHRA VCTS BKN040CB OVC250
      TEMPO 2205/2208 34020G30KT 2SM -TSRA OVC025CB
     FM220800 21005KT P6SM VCSH BKN035 OVC200
      TEMPO 2208/2212 3SM BR
     FM221500 25008KT P6SM -SHRA VCTS BKN035CB OVC150
     FM222000 27007KT P6SM BKN040=



000
FTUS41 KILN 220300 AAB
TAFCMH
TAF AMD
KCMH 220323Z 2203/2224 00000KT P6SM SCT012 BKN090
      TEMPO 2204/2208 34020G32KT 2SM -TSRA OVC025CB
     FM220900 23004KT 5SM -SHRA BR SCT012 BKN035
     FM221200 23005KT P6SM VCSH BKN012
     FM221500 23007KT P6SM -SHRA VCTS BKN022CB
     FM221800 25008KT P6SM BKN035=



000
FTUS41 KILN 220300 AAA
TAFILN
TAF AMD
KILN 220323Z 2203/2224 22005KT 3SM BR FEW030 BKN120
      TEMPO 2204/2208 34020G32KT 2SM -TSRA OVC025CB
     FM220800 23004KT 5SM BR VCSH BKN012
     FM221300 23005KT P6SM VCSH BKN015
     FM221500 23007KT P6SM -SHRA VCTS BKN022CB
     FM221900 25009KT P6SM BKN035
     FM222300 25008KT P6SM VCSH BKN035=



000
FTUS41 KILN 220300 AAB
TAFLCK
TAF AMD
KLCK 220323Z 2203/2224 00000KT 5SM BR VCSH SCT015 BKN090
      TEMPO 2204/2208 34020G31KT 2SM -TSRA OVC025CB
     FM220900 21004KT 5SM -SHRA BR SCT012 BKN035
     FM221200 22005KT P6SM VCSH BKN012
     FM221500 23007KT P6SM -SHRA VCTS BKN022CB
     FM221800 25008KT P6SM BKN035=



000
FTUS41 KILN 220300 AAC
TAFDAY
TAF AMD
KDAY 220304Z 2203/2224 17004KT 6SM -TSRA BR SCT040CB BKN100 OVC140
      TEMPO 2203/2207 34022G34KT 2SM -TSRA OVC025CB
     FM220700 23006KT 5SM BR VCSH BKN012
     FM221300 23006KT P6SM VCSH BKN015
     FM221500 25008KT P6SM -SHRA VCTS BKN022CB
     FM221900 26009KT P6SM BKN035
     FM222300 27007KT P6SM VCTS BKN040CB=



000
FTUS41 KILN 220200 AAB
TAFDAY
TAF AMD
KDAY 220241Z 2203/2224 18006KT 5SM -TSRA BKN035CB
      TEMPO 2204/2207 2SM -TSRA BKN025CB
     FM220700 23006KT 5SM BR VCSH BKN012
     FM221300 23006KT P6SM VCSH BKN015
     FM221500 25008KT P6SM -SHRA VCTS BKN022CB
     FM221900 26009KT P6SM BKN035
     FM222300 27007KT P6SM VCTS BKN040CB=



000
FTUS41 KILN 220200 AAB
TAFLUK
TAF AMD
KLUK 220237Z 2203/2224 00000KT P6SM BKN040
     FM220500 21005KT P6SM -SHRA VCTS BKN040CB OVC250
     FM220800 21005KT P6SM VCSH BKN035 OVC200
      TEMPO 2208/2212 3SM BR
     FM221500 25008KT P6SM -SHRA VCTS BKN035CB OVC150
     FM222000 27007KT P6SM BKN040=



000
FTUS41 KILN 220200 AAA
TAFDAY
TAF AMD
KDAY 220203Z 2202/2224 21006KT 5SM BR SCT025 OVC200
     FM220400 22006KT 5SM -SHRA VCTS SCT025CB BKN040
      TEMPO 2204/2207 2SM -TSRA BKN025CB
     FM220800 23006KT 5SM BR VCSH BKN012
     FM221300 23006KT P6SM VCSH BKN015
     FM221500 25008KT P6SM -SHRA VCTS BKN022CB
     FM221900 26009KT P6SM BKN035
     FM222300 27007KT P6SM VCTS BKN040CB=



000
FTUS41 KILN 220100 AAA
TAFLUK
TAF AMD
KLUK 220155Z 2202/2224 00000KT 2SM BR BKN150
     FM220300 00000KT 3SM BR SCT035 BKN150
     FM220500 21005KT P6SM -SHRA VCTS BKN040CB OVC250
     FM220800 21005KT P6SM VCSH BKN035 OVC200
      TEMPO 2208/2212 3SM BR
     FM221500 25008KT P6SM -SHRA VCTS BKN035CB OVC150
     FM222000 27007KT P6SM BKN040=



000
FTUS41 KILN 220100 AAA
TAFCMH
TAF AMD
KCMH 220133Z 2202/2224 00000KT P6SM BKN012
     FM220200 00000KT P6SM SCT012 BKN090
     FM220500 23004KT 5SM -SHRA VCTS BKN050CB
     FM220900 23004KT 5SM -SHRA BR SCT012 BKN035
     FM221200 23005KT P6SM VCSH BKN012
     FM221500 23007KT P6SM -SHRA VCTS BKN022CB
     FM221800 25008KT P6SM BKN035=



000
FTUS41 KILN 220100 AAA
TAFLCK
TAF AMD
KLCK 220131Z 2202/2224 00000KT 5SM BR VCSH SCT015 BKN090
     FM220500 20004KT 5SM -SHRA VCTS BKN050CB
     FM220900 21004KT 5SM -SHRA BR SCT012 BKN035
     FM221200 22005KT P6SM VCSH BKN012
     FM221500 23007KT P6SM -SHRA VCTS BKN022CB
     FM221800 25008KT P6SM BKN035=



000
FTUS41 KILN 220100 AAA
TAFILN
TAF AMD
KILN 220127Z 2201/2224 22005KT 3SM BR FEW030 BKN120
      TEMPO 2202/2204 2SM BR
     FM220500 23004KT 5SM -SHRA VCTS BKN050CB
     FM220900 23004KT 5SM BR VCSH BKN012
     FM221300 23005KT P6SM VCSH BKN015
     FM221500 23007KT P6SM -SHRA VCTS BKN022CB
     FM221900 25009KT P6SM BKN035
     FM222300 25008KT P6SM VCSH BKN035=



000
FTUS41 KILN 212300
TAFCVG
TAF
KCVG 212340Z 2200/2306 21005KT P6SM FEW035 SCT150
     FM220500 21005KT P6SM -SHRA VCTS BKN040CB OVC250
     FM220800 21005KT P6SM VCSH BKN035 OVC200
     FM221500 25008KT P6SM -SHRA VCTS BKN035CB OVC150
     FM222000 27007KT P6SM BKN040
     FM230000 25004KT P6SM VCTS BKN040CB
     FM230300 24004KT P6SM SCT040 BKN080=



000
FTUS41 KILN 212300
TAFLUK
TAF
KLUK 212340Z 2200/2224 21003KT P6SM FEW035 SCT150
     FM220500 21005KT P6SM -SHRA VCTS BKN040CB OVC250
     FM220800 21005KT P6SM VCSH BKN035 OVC200
      TEMPO 2208/2212 3SM BR
     FM221500 25008KT P6SM -SHRA VCTS BKN035CB OVC150
     FM222000 27007KT P6SM BKN040=



000
FTUS41 KILN 212300
TAFCMH
TAF
KCMH 212340Z 2200/2224 20004KT P6SM SCT012 BKN120
     FM220500 23004KT 5SM -SHRA VCTS BKN050CB
     FM220900 23004KT 5SM -SHRA BR SCT012 BKN035
     FM221200 23005KT P6SM VCSH BKN012
     FM221500 23007KT P6SM -SHRA VCTS BKN022CB
     FM221800 25008KT P6SM BKN035=



000
FTUS41 KILN 212300
TAFLCK
TAF
KLCK 212340Z 2200/2224 21003KT P6SM SCT012 BKN120
     FM220500 20004KT 5SM -SHRA VCTS BKN050CB
     FM220900 21004KT 5SM -SHRA BR SCT012 BKN035
     FM221200 22005KT P6SM VCSH BKN012
     FM221500 23007KT P6SM -SHRA VCTS BKN022CB
     FM221800 25008KT P6SM BKN035=



000
FTUS41 KILN 212300
TAFILN
TAF
KILN 212340Z 2200/2224 22005KT 6SM HZ FEW030 BKN120
     FM220500 23004KT 5SM -SHRA VCTS BKN050CB
     FM220900 23004KT 5SM BR VCSH BKN012
     FM221300 23005KT P6SM VCSH BKN015
     FM221500 23007KT P6SM -SHRA VCTS BKN022CB
     FM221900 25009KT P6SM BKN035
     FM222300 25008KT P6SM VCSH BKN035=



000
FTUS41 KILN 212300
TAFDAY
TAF
KDAY 212340Z 2200/2224 21006KT P6SM SCT025 BKN040
     FM220300 22006KT 5SM -SHRA VCTS SCT025CB BKN040
      TEMPO 2204/2207 2SM -TSRA BKN025CB
     FM220800 23006KT 5SM BR VCSH BKN012
     FM221300 23006KT P6SM VCSH BKN015
     FM221500 25008KT P6SM -SHRA VCTS BKN022CB
     FM221900 26009KT P6SM BKN035
     FM222300 27007KT P6SM VCTS BKN040CB=



000
FTUS41 KILN 212000 AAA
TAFCVG
TAF AMD
KCVG 212057Z 2121/2224 19006KT P6SM SCT025 BKN200
     FM220000 22005KT P6SM BKN250
     FM220800 23005KT P6SM BKN080
     FM221400 25008KT P6SM SCT050 BKN150=



000
FTUS41 KILN 212000 AAA
TAFLCK
TAF AMD
KLCK 212009Z 2120/2218 23008KT P6SM -SHRA OVC012
      TEMPO 2120/2121 5SM -SHRA BKN009
     FM212300 21004KT P6SM BKN080
     FM220400 21003KT P6SM -SHRA VCTS BKN050CB
     FM220800 VRB02KT P6SM VCTS BKN040CB
     FM221200 20004KT P6SM BKN040=



000
FTUS41 KILN 212000 AAA
TAFCMH
TAF AMD
KCMH 212007Z 2120/2218 22009KT P6SM -SHRA OVC012
      TEMPO 2120/2121 5SM -SHRA
     FM212300 20004KT P6SM BKN080
     FM220400 22003KT P6SM -SHRA VCTS BKN050CB
     FM220800 VRB03KT P6SM VCTS BKN040CB
     FM221200 19004KT P6SM BKN040=



000
FTUS41 KILN 211700
TAFLCK
TAF
KLCK 211740Z 2118/2218 21005KT 5SM -SHRA BR SCT050 OVC080
      TEMPO 2118/2119 2SM -TSRA BR BKN040CB
     FM212000 22007KT P6SM SCT025 BKN080
     FM220000 21004KT P6SM BKN080
     FM220400 21003KT P6SM -SHRA VCTS BKN050CB
     FM220800 VRB02KT P6SM VCTS BKN040CB
     FM221200 20004KT P6SM BKN040=



000
FTUS41 KILN 211700
TAFCMH
TAF
KCMH 211740Z 2118/2218 21005KT 5SM -SHRA BR SCT050 OVC080
      TEMPO 2118/2119 2SM -TSRA BR BKN040CB
     FM212000 20007KT P6SM SCT025 BKN080
     FM220000 20004KT P6SM BKN080
     FM220400 22003KT P6SM -SHRA VCTS BKN050CB
     FM220800 VRB03KT P6SM VCTS BKN040CB
     FM221200 19004KT P6SM BKN040=



000
FTUS41 KILN 211700
TAFDAY
TAF
KDAY 211740Z 2118/2218 23009KT P6SM SCT022 OVC080
      TEMPO 2118/2120 BKN022
     FM220000 22006KT P6SM FEW050 BKN150
     FM220700 23006KT P6SM VCTS BKN040CB
     FM221300 23006KT P6SM SCT050 BKN150=



000
FTUS41 KILN 211700
TAFILN
TAF
KILN 211740Z 2118/2218 23008KT 3SM -SHRA BR SCT050 OVC100
     FM211830 22009KT P6SM SCT025 BKN080
     FM220000 22005KT P6SM BKN150
     FM220800 23004KT P6SM VCTS BKN050CB
     FM221300 23007KT P6SM SCT050 BKN150=



000
FTUS41 KILN 211700
TAFCVG
TAF
KCVG 211740Z 2118/2224 23008KT P6SM SCT025 BKN090
      TEMPO 2118/2120 BKN025
     FM220000 22005KT P6SM BKN250
     FM220800 23005KT P6SM BKN080
     FM221400 25008KT P6SM SCT050 BKN150=



000
FTUS41 KILN 211700
TAFLUK
TAF
KLUK 211740Z 2118/2218 23008KT P6SM SCT030 BKN090
      TEMPO 2118/2120 BKN025
     FM220000 VRB02KT P6SM BKN250
     FM220800 22003KT P6SM BKN080
     FM221400 23005KT P6SM SCT050 BKN150=



000
FTUS41 KILN 211700 AAB
TAFILN
TAF AMD
KILN 211708Z 2117/2212 23008KT 5SM -SHRA BR SCT050 OVC100
      TEMPO 2117/2118 2SM -TSRA BR BKN040CB
     FM211900 22009KT P6SM SCT025 BKN080
     FM220000 22005KT P6SM SCT050 BKN150
     FM221100 22005KT P6SM BKN040=



000
FTUS41 KILN 211700 AAB
TAFDAY
TAF AMD
KDAY 211708Z 2117/2212 23008KT 5SM -SHRA SCT050 OVC100
      TEMPO 2117/2118 2SM TSRA BR BKN050CB
     FM211800 24009KT P6SM SCT022 OVC080
      TEMPO 2118/2120 BKN022
     FM220000 22006KT P6SM SCT050 BKN150
     FM220900 23006KT P6SM VCTS OVC040CB=



000
FTUS41 KILN 211700 AAC
TAFCVG
TAF AMD
KCVG 211702Z 2117/2218 23008KT P6SM SCT025 BKN090
      TEMPO 2117/2120 -SHRA BKN025
     FM220000 22005KT P6SM SCT050 BKN150
     FM221100 22005KT P6SM BKN040=



000
FTUS41 KILN 211700 AAC
TAFLUK
TAF AMD
KLUK 211702Z 2117/2212 23008KT P6SM SCT030 BKN090
      TEMPO 2117/2120 -SHRA BKN025
     FM220000 22004KT P6SM SCT050 BKN150
     FM221100 22004KT P6SM BKN040=



000
FTUS41 KILN 211500 AAA
TAFILN
TAF AMD
KILN 211514Z 2115/2212 23008KT 5SM -SHRA BR SCT050 OVC100
      TEMPO 2115/2117 2SM -TSRA BR BKN040CB
     FM211800 22009KT P6SM SCT050 BKN100
     FM220000 22005KT P6SM SCT050 BKN150
     FM221100 22005KT P6SM BKN040=



000
FTUS41 KILN 211500 AAA
TAFDAY
TAF AMD
KDAY 211511Z 2115/2212 23008KT 5SM -TSRA SCT050CB OVC100
      TEMPO 2115/2117 1SM TSRA BR OVC025CB
     FM211700 24009KT P6SM FEW050 BKN100
     FM220000 22006KT P6SM SCT050 BKN150
     FM220900 23006KT P6SM VCTS OVC040CB=



000
FTUS41 KILN 211500 AAA
TAFLCK
TAF AMD
KLCK 211506Z 2115/2212 22006KT P6SM -SHRA SCT050 OVC100
      TEMPO 2115/2119 3SM -TSRA BR BKN040CB
     FM212000 23007KT P6SM SCT050 BKN100
     FM220000 23005KT P6SM SCT050 BKN150
     FM220900 23005KT P6SM VCTS OVC040CB=



000
FTUS41 KILN 211500 AAA
TAFCMH
TAF AMD
KCMH 211506Z 2115/2212 21007KT P6SM -SHRA SCT050 OVC100
      TEMPO 2115/2119 3SM -TSRA BR BKN040CB
     FM212000 23009KT P6SM SCT050 BKN100
     FM220000 23005KT P6SM SCT050 BKN150
     FM220900 23005KT P6SM VCTS OVC040CB=



000
FTUS41 KILN 211500 AAB
TAFLUK
TAF AMD
KLUK 211501Z 2115/2212 20006KT P6SM VCSH SCT050 OVC100
      TEMPO 2115/2116 5SM -TSRA BKN010CB
     FM211700 23008KT P6SM FEW050 BKN100
     FM220000 22004KT P6SM SCT050 BKN150
     FM221100 22004KT P6SM BKN040=



000
FTUS41 KILN 211500 AAB
TAFCVG
TAF AMD
KCVG 211501Z 2115/2218 20007KT P6SM VCSH SCT050 OVC100
      TEMPO 2115/2116 5SM -TSRA BKN040CB
     FM211700 23008KT P6SM FEW050 BKN100
     FM220000 22005KT P6SM SCT050 BKN150
     FM221100 22005KT P6SM BKN040=



000
FTUS41 KILN 211200 AAA
TAFLUK
TAF AMD
KLUK 211234Z 2113/2212 12003KT P6SM BKN008
     FM211330 21007KT P6SM SCT050 BKN100
      TEMPO 2114/2117 3SM TSRA BR OVC025CB
     FM211800 23008KT P6SM SCT050 BKN100
     FM220000 22004KT P6SM SCT050 BKN150
     FM221100 22004KT P6SM BKN040=



000
FTUS41 KILN 211200 AAA
TAFCVG
TAF AMD
KCVG 211234Z 2113/2218 14004KT P6SM BKN006
     FM211330 21007KT P6SM SCT050 BKN100
      TEMPO 2114/2117 3SM TSRA BR OVC025CB
     FM211800 23008KT P6SM SCT050 BKN100
     FM220000 22005KT P6SM SCT050 BKN150
     FM221100 22005KT P6SM BKN040=



000
FTUS41 KILN 211100
TAFDAY
TAF
KDAY 211138Z 2112/2212 22010KT P6SM SCT050 BKN100
      TEMPO 2114/2118 3SM TSRA BR OVC025CB
     FM211800 23010KT P6SM SCT050 BKN100
     FM220000 22006KT P6SM SCT050 BKN150
     FM220900 23006KT P6SM VCTS OVC040CB=



000
FTUS41 KILN 211100
TAFILN
TAF
KILN 211138Z 2112/2212 25010KT 3SM -TSRA BKN050CB
     FM211230 22008KT P6SM SCT050 BKN100
      TEMPO 2115/2119 3SM TSRA BR OVC025CB
     FM211900 23010KT P6SM SCT050 BKN100
     FM220000 22005KT P6SM SCT050 BKN150
     FM221100 22005KT P6SM BKN040=



000
FTUS41 KILN 211100
TAFLCK
TAF
KLCK 211138Z 2112/2212 19005KT P6SM BKN120
     FM211400 22006KT P6SM SCT050 BKN100
      TEMPO 2116/2120 3SM TSRA BR OVC025CB
     FM212000 23009KT P6SM SCT050 BKN100
     FM220000 23005KT P6SM SCT050 BKN150
     FM220900 23005KT P6SM VCTS OVC040CB=



000
FTUS41 KILN 211100
TAFCVG
TAF
KCVG 211138Z 2112/2218 21005KT P6SM SCT050 BKN100
      TEMPO 2113/2117 3SM TSRA BR OVC025CB
     FM211800 23008KT P6SM SCT050 BKN100
     FM220000 22005KT P6SM SCT050 BKN150
     FM221100 22005KT P6SM BKN040=



000
FTUS41 KILN 211100
TAFCMH
TAF
KCMH 211138Z 2112/2212 19005KT P6SM BKN120
     FM211400 22007KT P6SM SCT050 BKN100
      TEMPO 2116/2120 3SM TSRA BR OVC025CB
     FM212000 23009KT P6SM SCT050 BKN100
     FM220000 23005KT P6SM SCT050 BKN150
     FM220900 23005KT P6SM VCTS OVC040CB=



000
FTUS41 KILN 211100
TAFLUK
TAF
KLUK 211138Z 2112/2212 21005KT P6SM SCT050 BKN100
      TEMPO 2113/2117 3SM TSRA BR OVC025CB
     FM211800 23008KT P6SM SCT050 BKN100
     FM220000 22004KT P6SM SCT050 BKN150
     FM221100 22004KT P6SM BKN040=



000
FTUS41 KILN 211000 AAB
TAFILN
TAF AMD
KILN 211037Z 2111/2206 21005KT P6SM BKN120
     FM211100 21005KT P6SM -SHRA VCTS OVC050CB
      TEMPO 2112/2116 3SM TSRA BR OVC025CB
     FM211600 23010KT P6SM VCSH SCT050 BKN100
     FM220000 22005KT P6SM SCT100 BKN150=



000
FTUS41 KILN 210900 AAB
TAFDAY
TAF AMD
KDAY 210954Z 2110/2206 22006KT P6SM -SHRA VCTS OVC050CB
      TEMPO 2112/2116 3SM -TSRA BR OVC025CB
     FM211600 23010KT P6SM VCSH SCT050 BKN100
     FM220000 22006KT P6SM SCT100 BKN150=



000
FTUS41 KILN 210800 AAA
TAFDAY
TAF AMD
KDAY 210858Z 2109/2206 21006KT P6SM VCTS BKN050CB OVC120
     FM211200 22006KT P6SM -SHRA VCTS OVC050CB
      TEMPO 2112/2116 3SM -TSRA BR OVC025CB
     FM211600 23010KT P6SM VCSH SCT050 BKN100
     FM220000 22006KT P6SM SCT100 BKN150=



000
FTUS41 KILN 210800 AAA
TAFILN
TAF AMD
KILN 210858Z 2109/2206 21005KT P6SM BKN120
     FM211200 21005KT P6SM -SHRA VCTS OVC050CB
      TEMPO 2112/2116 3SM -TSRA BR OVC025CB
     FM211600 23010KT P6SM VCSH SCT050 BKN100
     FM220000 22005KT P6SM SCT100 BKN150=



000
FTUS41 KILN 210800 AAA
TAFLCK
TAF AMD
KLCK 210858Z 2109/2206 23005KT P6SM VCSH BKN050 OVC120
     FM211400 23006KT P6SM -SHRA VCTS OVC050CB
      TEMPO 2114/2118 3SM -TSRA BR OVC025CB
     FM211800 23009KT P6SM VCSH SCT050 BKN100
     FM220000 23005KT P6SM SCT100 BKN150=



000
FTUS41 KILN 210800 AAA
TAFCMH
TAF AMD
KCMH 210858Z 2109/2206 23005KT P6SM VCSH BKN050 OVC120
     FM211400 23006KT P6SM -SHRA VCTS OVC050CB
      TEMPO 2114/2118 3SM -TSRA BR OVC025CB
     FM211800 23009KT P6SM VCSH SCT050 BKN100
     FM220000 23005KT P6SM SCT100 BKN150=



000
FTUS41 KILN 210800 AAA
TAFCVG
TAF AMD
KCVG 210858Z 2109/2212 21005KT 5SM BR SCT050 BKN120
     FM211200 21005KT P6SM -SHRA VCTS OVC050CB
      TEMPO 2112/2116 3SM -TSRA BR OVC025CB
     FM211600 23008KT P6SM VCSH SCT050 BKN100
     FM220000 22005KT P6SM SCT100 BKN150=



000
FTUS41 KILN 210800 AAA
TAFLUK
TAF AMD
KLUK 210858Z 2109/2206 00000KT 5SM BR SCT050 BKN120
     FM211200 21005KT P6SM -SHRA VCTS OVC050CB
      TEMPO 2112/2116 3SM -TSRA BR OVC025CB
     FM211600 23008KT P6SM VCSH SCT050 BKN100
     FM220000 22004KT P6SM SCT100 BKN150=



000
FTUS41 KILN 210500
TAFCVG
TAF
KCVG 210537Z 2106/2212 21005KT P6SM BKN120
     FM211200 21005KT P6SM -SHRA VCTS OVC050CB
      TEMPO 2112/2116 3SM -TSRA BR OVC025CB
     FM211600 23008KT P6SM VCSH SCT050 BKN100
     FM220000 22005KT P6SM SCT100 BKN150=



000
FTUS41 KILN 210500
TAFLUK
TAF
KLUK 210537Z 2106/2206 00000KT P6SM BKN120
     FM211200 21005KT P6SM -SHRA VCTS OVC050CB
      TEMPO 2112/2116 3SM -TSRA BR OVC025CB
     FM211600 23008KT P6SM VCSH SCT050 BKN100
     FM220000 22004KT P6SM SCT100 BKN150=



000
FTUS41 KILN 210500
TAFILN
TAF
KILN 210537Z 2106/2206 21005KT P6SM BKN120
     FM211200 21005KT P6SM -SHRA VCTS OVC050CB
      TEMPO 2112/2116 3SM -TSRA BR OVC025CB
     FM211600 23010KT P6SM VCSH SCT050 BKN100
     FM220000 22005KT P6SM SCT100 BKN150=



000
FTUS41 KILN 210500
TAFLCK
TAF
KLCK 210537Z 2106/2206 25005KT P6SM SCT120 SCT250
     FM210900 23005KT P6SM VCTS BKN050CB OVC120
     FM211400 23006KT P6SM -SHRA VCTS OVC050CB
      TEMPO 2114/2118 3SM -TSRA BR OVC025CB
     FM211800 23009KT P6SM VCSH SCT050 BKN100
     FM220000 23005KT P6SM SCT100 BKN150=



000
FTUS41 KILN 210500
TAFCMH
TAF
KCMH 210537Z 2106/2206 25005KT P6SM SCT120 SCT250
     FM210900 23005KT P6SM VCTS BKN050CB OVC120
     FM211400 23006KT P6SM -SHRA VCTS OVC050CB
      TEMPO 2114/2118 3SM -TSRA BR OVC025CB
     FM211800 23009KT P6SM VCSH SCT050 BKN100
     FM220000 23005KT P6SM SCT100 BKN150=



000
FTUS41 KILN 210500
TAFDAY
TAF
KDAY 210537Z 2106/2206 21006KT P6SM BKN120
     FM210900 21006KT P6SM VCTS BKN050CB OVC120
     FM211200 22006KT P6SM -SHRA VCTS OVC050CB
      TEMPO 2112/2116 3SM -TSRA BR OVC025CB
     FM211600 23010KT P6SM VCSH SCT050 BKN100
     FM220000 22006KT P6SM SCT100 BKN150=



000
FTUS41 KILN 202300
TAFDAY
TAF
KDAY 202338Z 2100/2124 26005KT P6SM SCT120 SCT250
     FM211100 23007KT P6SM -SHRA VCTS BKN035CB
      TEMPO 2112/2114 3SM -TSRA
     FM211500 23008KT P6SM VCSH SCT040 BKN150
     FM211900 24010KT P6SM VCTS BKN040CB
     FM212100 24010KT P6SM BKN040=



000
FTUS41 KILN 202300
TAFCVG
TAF
KCVG 202338Z 2100/2206 23005KT P6SM SCT150 BKN250
     FM211000 22004KT 5SM -SHRA BR VCTS BKN050CB
     FM211500 23007KT P6SM SCT035 BKN150
      TEMPO 2118/2121 -SHRA
     FM220000 22004KT P6SM VCSH FEW040 BKN150=



000
FTUS41 KILN 202300
TAFLUK
TAF
KLUK 202338Z 2100/2124 00000KT P6SM SCT150 BKN250
     FM210500 00000KT 4SM BR SCT150
      TEMPO 2106/2110 2SM BR
     FM211000 22004KT 3SM -SHRA BR VCTS BKN050CB
     FM211500 23006KT P6SM VCSH SCT035 BKN150
     FM211800 24007KT P6SM VCTS BKN040CB
     FM212000 23005KT P6SM SCT040 BKN150=



000
FTUS41 KILN 202300
TAFILN
TAF
KILN 202338Z 2100/2124 25004KT P6SM FEW040 SCT150
     FM211200 23007KT P6SM -SHRA VCTS BKN035CB
      TEMPO 2113/2115 3SM -TSRA
     FM211600 23008KT P6SM VCSH SCT040 BKN150
     FM212000 24010KT P6SM VCTS BKN040CB
     FM212200 24009KT P6SM BKN040=



000
FTUS41 KILN 202300
TAFLCK
TAF
KLCK 202338Z 2100/2124 25004KT P6SM FEW050 SCT250
     FM211100 22004KT P6SM FEW025 BKN100
     FM211400 23006KT P6SM -SHRA VCTS BKN040CB
      TEMPO 2115/2117 5SM -TSRA
     FM211900 24008KT P6SM VCSH SCT035 BKN150
     FM212300 23006KT P6SM FEW040 SCT200=



000
FTUS41 KILN 202300
TAFCMH
TAF
KCMH 202338Z 2100/2124 24004KT P6SM FEW050 SCT250
     FM211100 23005KT P6SM FEW025 BKN100
     FM211400 23006KT P6SM -SHRA VCTS BKN040CB
      TEMPO 2115/2117 5SM -TSRA
     FM211900 24009KT P6SM VCSH SCT035 BKN150
     FM212300 23007KT P6SM FEW040 SCT200=



000
FTUS41 KILN 202000 AAB
TAFCVG
TAF AMD
KCVG 202021Z 2020/2124 27008KT P6SM VCTS SCT040CB OVC250
     FM202030 29020G35KT 1/2SM TSRA BKN040CB OVC250
     FM202045 29010G18KT 3SM -TSRA BKN040CB OVC250
     FM202100 29010KT P6SM VCTS BKN040CB OVC250
     FM202200 24005KT P6SM SCT100 BKN250
     FM210700 22004KT P6SM VCTS BKN040CB
     FM211200 23007KT P6SM SCT040 BKN150
     FM211800 24008KT P6SM VCTS SCT050CB=



000
FTUS41 KILN 201800 AAA
TAFLUK
TAF AMD
KLUK 201845Z 2019/2118 25009KT P6SM SCT045 OVC250
      TEMPO 2020/2022 5SM -TSRA BKN045CB
     FM210000 27003KT P6SM SCT100 BKN250
     FM210700 VRB02KT P6SM VCTS BKN045CB
     FM211200 23005KT P6SM SCT045 BKN150=



000
FTUS41 KILN 201800 AAA
TAFCVG
TAF AMD
KCVG 201845Z 2019/2124 27008KT P6SM SCT040 OVC250
      TEMPO 2020/2022 5SM -TSRA BKN040CB
     FM210000 24005KT P6SM SCT100 BKN250
     FM210700 22004KT P6SM VCTS BKN040CB
     FM211200 23007KT P6SM SCT040 BKN150
     FM211800 24008KT P6SM VCTS SCT050CB=



    US Dept of Commerce
    National Oceanic and Atmospheric Administration
    National Weather Service
    1325 East West Highway
    Silver Spring, MD 20910
    Page Author: NWS Internet Services Team
Disclaimer
Information Quality
Credits
Glossary
Privacy Policy
Freedom of Information Act (FOIA)
About Us
Career Opportunities